Main page
METAR-TAF:

METAR-TAF

Airports :

Gibraltar International Airport

Gibraltar, Gibraltar

latitude: 36-09N, longitude: 005-21W, elevation: 5 m

Current weather observation

The report was made 1 hour and 8 minutes ago, at 04:50 UTC
Wind 12 kt from the East
Temperature 23°C
Humidity 94%
Pressure 1016 hPa
Visibility 10 km or more
Scattered clouds at a height of 1000 ft

METAR: LXGB 250450Z 09012KT 9999 SCT010 23/22 Q1016 RMK GRN

Time: 07:58 (05:58 UTC)

Forecast

The report was made 1 hour and 7 minutes ago, at 04:51 UTC
Forecast valid from 25 at 06 UTC to 25 at 15 UTC
Wind 14 kt from the East
Visibility 10 km or more
Few clouds at a height of 1300 ft
Scattered clouds at a height of 2000 ft
Probability 40% :
Temporary
from 25 at 06 UTC to 25 at 09 UTC
Scattered clouds at a height of 1300 ft
Becoming
from 25 at 09 UTC to 25 at 12 UTC
Few clouds at a height of 2000 ft

TAF: LXGB 250451Z 2506/2515 08014KT 9999 FEW013 SCT020 PROB40 TEMPO 2506/2509 SCT013 BECMG 2509/2512 FEW020

Weather observations and forecasts of more than 4000 airports (METAR and TAF reports).

The available stations are represented by yellow and red dots on the map.

Hover mouse over dot to see the name of the station.

Then click to see weather observations and forecasts.

To change the map : click on the green buttons with a black cross to zoom in, on the green button with a dash to zoom out, or on the green arrows for adjacent maps.


METAR-TAF: